Time;durP1;ratioP1;P1;durP2;ratioP2;P2;SDS_P1;SDS_P2;PMS_P1;PMS_P2;Temp;Humidity;BMP_temperature;BMP_pressure;BME280_temperature;BME280_humidity;BME280_pressure;Samples;Min_cycle;Max_cycle;Signal;HPM_P1;HPM_P2
2023/04/26 00:01:45;;;;;;;1.45;0.80;;;;;;;;;;5015106;28;20145;-63
2023/04/26 00:04:10;;;;;;;1.20;0.70;;;;;;;;;;5017818;28;20100;-63
2023/04/26 00:06:36;;;;;;;1.38;0.73;;;;;;;;;;5022172;28;20044;-63
2023/04/26 00:09:01;;;;;;;1.27;0.77;;;;;;;;;;5009314;28;20038;-62
2023/04/26 00:11:26;;;;;;;1.40;0.77;;;;;;;;;;5014945;28;20048;-62
2023/04/26 00:13:52;;;;;;;1.20;0.75;;;;;;;;;;4983890;28;20101;-62
2023/04/26 00:16:18;;;;;;;1.70;0.90;;;;;;;;;;5013438;28;20697;-63
2023/04/26 00:18:45;;;;;;;1.25;0.80;;;;;;;;;;5018187;28;20273;-62
2023/04/26 00:21:10;;;;;;;1.35;0.80;;;;;;;;;;5009623;28;20046;-61
2023/04/26 00:23:35;;;;;;;1.67;1.00;;;;;;;;;;5011933;28;20034;-63
2023/04/26 00:26:01;;;;;;;1.30;0.87;;;;;;;;;;5022513;28;20070;-63
2023/04/26 00:28:27;;;;;;;1.90;0.80;;;;;;;;;;4983021;28;20084;-62
2023/04/26 00:30:52;;;;;;;1.08;0.70;;;;;;;;;;5019058;28;20045;-62
2023/04/26 00:33:18;;;;;;;1.53;0.73;;;;;;;;;;5015072;28;20057;-63
2023/04/26 00:35:43;;;;;;;1.48;0.88;;;;;;;;;;5009035;28;20316;-62
2023/04/26 00:38:08;;;;;;;1.37;0.70;;;;;;;;;;5024177;28;20049;-62
2023/04/26 00:40:34;;;;;;;2.10;1.00;;;;;;;;;;5016071;28;20080;-62
2023/04/26 00:42:59;;;;;;;1.88;0.90;;;;;;;;;;5001468;28;20375;-62
2023/04/26 00:45:25;;;;;;;1.77;1.10;;;;;;;;;;5025587;28;20119;-62
2023/04/26 00:47:50;;;;;;;1.90;0.90;;;;;;;;;;5015376;28;20123;-61
2023/04/26 00:50:15;;;;;;;1.75;0.90;;;;;;;;;;5019849;28;20459;-61
2023/04/26 00:52:40;;;;;;;1.42;0.88;;;;;;;;;;5012935;28;20041;-62
2023/04/26 00:55:06;;;;;;;1.67;0.80;;;;;;;;;;5010236;28;20137;-61
2023/04/26 00:57:31;;;;;;;1.65;0.77;;;;;;;;;;4994824;28;20687;-61
2023/04/26 00:59:57;;;;;;;1.50;0.80;;;;;;;;;;5006224;28;20030;-62
2023/04/26 01:02:22;;;;;;;1.27;0.70;;;;;;;;;;5005952;28;20418;-61
2023/04/26 01:04:47;;;;;;;1.53;0.90;;;;;;;;;;4994724;28;20288;-61
2023/04/26 01:07:12;;;;;;;1.30;0.80;;;;;;;;;;4987985;28;20430;-62
2023/04/26 01:09:37;;;;;;;2.47;0.90;;;;;;;;;;5000945;28;20319;-61
2023/04/26 01:12:03;;;;;;;0.93;0.70;;;;;;;;;;5001278;28;20314;-62
2023/04/26 01:14:28;;;;;;;1.33;0.80;;;;;;;;;;4990393;28;20026;-63
2023/04/26 01:16:54;;;;;;;1.85;0.90;;;;;;;;;;5002170;28;20096;-62
2023/04/26 01:19:20;;;;;;;1.67;0.82;;;;;;;;;;5013383;28;20515;-61
2023/04/26 01:21:45;;;;;;;0.93;0.40;;;;;;;;;;5011370;28;20117;-60
2023/04/26 01:24:11;;;;;;;1.67;0.90;;;;;;;;;;5015893;28;21489;-60
2023/04/26 01:26:42;;;;;;;1.27;0.60;;;;;;;;;;5013386;28;20289;-62
2023/04/26 01:29:14;;;;;;;1.70;0.70;;;;;;;;;;5000281;28;20430;-62
2023/04/26 01:31:39;;;;;;;0.95;0.70;;;;;;;;;;5009422;28;20037;-62
2023/04/26 01:34:05;;;;;;;1.35;0.88;;;;;;;;;;5005761;28;20044;-62
2023/04/26 01:36:31;;;;;;;1.60;0.80;;;;;;;;;;5007061;28;20041;-62
2023/04/26 01:38:56;;;;;;;1.23;0.73;;;;;;;;;;5003996;28;20045;-62
2023/04/26 01:41:21;;;;;;;2.17;0.80;;;;;;;;;;5005075;28;20034;-62
2023/04/26 01:43:47;;;;;;;1.27;0.77;;;;;;;;;;5001535;28;20308;-62
2023/04/26 01:46:12;;;;;;;0.97;0.70;;;;;;;;;;5004421;28;20034;-61
2023/04/26 01:48:37;;;;;;;1.10;0.63;;;;;;;;;;5004342;28;20053;-61
2023/04/26 01:51:02;;;;;;;1.00;0.73;;;;;;;;;;5003781;28;20335;-62
2023/04/26 01:53:28;;;;;;;1.40;0.60;;;;;;;;;;5018031;28;20287;-62
2023/04/26 01:55:54;;;;;;;1.60;0.90;;;;;;;;;;5009298;28;20029;-61
2023/04/26 01:58:19;;;;;;;1.80;0.80;;;;;;;;;;5010458;28;20277;-62
2023/04/26 02:00:45;;;;;;;1.73;0.80;;;;;;;;;;5004148;28;20116;-61
2023/04/26 02:03:10;;;;;;;1.02;0.70;;;;;;;;;;5011156;28;20130;-61
2023/04/26 02:05:35;;;;;;;1.10;0.70;;;;;;;;;;5003350;28;20112;-62
2023/04/26 02:08:01;;;;;;;1.67;1.00;;;;;;;;;;4999107;28;20494;-62
2023/04/26 02:10:26;;;;;;;1.00;0.63;;;;;;;;;;5005755;28;20277;-62
2023/04/26 02:12:51;;;;;;;1.20;0.70;;;;;;;;;;5008319;28;20066;-62
2023/04/26 02:15:17;;;;;;;1.13;0.90;;;;;;;;;;5003923;28;20313;-63
2023/04/26 02:17:42;;;;;;;1.88;0.90;;;;;;;;;;5004469;28;20890;-62
2023/04/26 02:20:10;;;;;;;1.53;0.70;;;;;;;;;;5003512;28;20473;-62
2023/04/26 02:22:35;;;;;;;2.00;0.77;;;;;;;;;;5003896;28;20808;-62
2023/04/26 02:25:00;;;;;;;1.30;0.73;;;;;;;;;;5014438;28;20041;-63
2023/04/26 02:27:26;;;;;;;1.87;0.80;;;;;;;;;;4998494;28;20693;-62
2023/04/26 02:29:51;;;;;;;1.13;0.80;;;;;;;;;;5004019;28;20379;-62
2023/04/26 02:32:17;;;;;;;1.43;1.00;;;;;;;;;;5007536;28;20038;-62
2023/04/26 02:34:43;;;;;;;2.03;1.00;;;;;;;;;;4994263;28;20085;-63
2023/04/26 02:37:08;;;;;;;1.23;0.73;;;;;;;;;;4996471;28;20292;-63
2023/04/26 02:39:33;;;;;;;1.15;0.80;;;;;;;;;;5000961;28;20038;-62
2023/04/26 02:41:59;;;;;;;1.13;0.70;;;;;;;;;;5001016;28;20052;-62
2023/04/26 02:44:24;;;;;;;1.50;0.90;;;;;;;;;;5007992;28;20285;-63
2023/04/26 02:46:49;;;;;;;1.30;0.93;;;;;;;;;;5015483;28;20057;-62
2023/04/26 02:49:15;;;;;;;1.30;0.80;;;;;;;;;;4994039;28;20081;-63
2023/04/26 02:51:40;;;;;;;1.17;0.70;;;;;;;;;;5003250;28;20026;-62
2023/04/26 02:54:06;;;;;;;1.43;0.93;;;;;;;;;;5012595;28;20030;-63
2023/04/26 02:56:31;;;;;;;1.70;0.88;;;;;;;;;;5005059;28;20088;-62
2023/04/26 02:58:56;;;;;;;1.70;1.00;;;;;;;;;;5003946;28;20040;-63
2023/04/26 03:01:22;;;;;;;1.90;0.93;;;;;;;;;;5000558;28;20308;-63
2023/04/26 03:03:47;;;;;;;1.85;1.00;;;;;;;;;;5001543;28;20046;-63
2023/04/26 03:06:12;;;;;;;1.33;0.90;;;;;;;;;;5015554;28;20039;-63
2023/04/26 03:08:37;;;;;;;1.70;0.90;;;;;;;;;;5007265;28;20164;-63
2023/04/26 03:11:02;;;;;;;2.00;0.87;;;;;;;;;;5008036;28;20066;-64
2023/04/26 03:13:28;;;;;;;1.63;0.80;;;;;;;;;;5008249;28;20273;-62
2023/04/26 03:15:53;;;;;;;1.60;0.87;;;;;;;;;;5006255;28;20666;-63
2023/04/26 03:18:18;;;;;;;1.08;0.75;;;;;;;;;;5006800;28;21038;-63
2023/04/26 03:20:44;;;;;;;1.33;0.80;;;;;;;;;;5004340;28;20133;-63
2023/04/26 03:23:10;;;;;;;1.35;0.88;;;;;;;;;;5002967;28;20595;-63
2023/04/26 03:25:35;;;;;;;1.73;0.90;;;;;;;;;;5006000;28;20109;-62
2023/04/26 03:28:01;;;;;;;2.38;0.90;;;;;;;;;;5009859;28;20140;-63
2023/04/26 03:30:26;;;;;;;1.42;0.80;;;;;;;;;;4998342;28;20022;-62
2023/04/26 03:32:52;;;;;;;1.30;0.80;;;;;;;;;;5002828;28;20707;-63
2023/04/26 03:35:17;;;;;;;1.60;0.85;;;;;;;;;;5006510;28;20491;-62
2023/04/26 03:37:43;;;;;;;1.03;0.80;;;;;;;;;;5009304;28;20142;-62
2023/04/26 03:40:08;;;;;;;1.13;0.80;;;;;;;;;;5002907;28;20064;-64
2023/04/26 03:42:34;;;;;;;1.02;0.77;;;;;;;;;;5011828;28;20510;-63
2023/04/26 03:44:59;;;;;;;1.45;0.93;;;;;;;;;;5008117;28;20091;-63
2023/04/26 03:47:24;;;;;;;1.30;0.93;;;;;;;;;;5006118;28;20042;-61
2023/04/26 03:49:49;;;;;;;2.03;0.80;;;;;;;;;;4987917;28;20051;-62
2023/04/26 03:52:15;;;;;;;1.10;0.73;;;;;;;;;;5010806;28;20272;-63
2023/04/26 03:54:40;;;;;;;1.45;1.10;;;;;;;;;;5004611;28;20022;-63
2023/04/26 03:57:06;;;;;;;1.60;1.00;;;;;;;;;;5007324;28;20072;-64
2023/04/26 03:59:31;;;;;;;1.50;0.93;;;;;;;;;;5007923;28;20038;-62
2023/04/26 04:01:56;;;;;;;1.70;0.93;;;;;;;;;;4997953;28;20111;-61
2023/04/26 04:04:22;;;;;;;1.47;0.97;;;;;;;;;;4989654;28;20525;-61
2023/04/26 04:06:47;;;;;;;1.40;0.90;;;;;;;;;;5013063;28;20430;-62
2023/04/26 04:09:13;;;;;;;1.20;0.80;;;;;;;;;;5003085;28;20303;-64
2023/04/26 04:11:38;;;;;;;1.50;0.90;;;;;;;;;;5007093;28;20044;-66
2023/04/26 04:14:03;;;;;;;1.30;1.07;;;;;;;;;;5001960;28;20034;-60
2023/04/26 04:16:28;;;;;;;1.23;0.90;;;;;;;;;;5003005;28;20101;-63
2023/04/26 04:18:54;;;;;;;1.20;0.90;;;;;;;;;;4993535;28;20367;-62
2023/04/26 04:21:19;;;;;;;1.67;1.20;;;;;;;;;;5010363;28;20185;-63
2023/04/26 04:23:44;;;;;;;1.25;1.00;;;;;;;;;;5001430;28;20046;-61
2023/04/26 04:26:11;;;;;;;1.60;0.93;;;;;;;;;;5007503;28;20065;-62
2023/04/26 04:28:36;;;;;;;1.17;0.93;;;;;;;;;;5018958;28;20054;-64
2023/04/26 04:31:02;;;;;;;1.10;0.80;;;;;;;;;;4999203;28;20052;-64
2023/04/26 04:33:27;;;;;;;2.92;1.08;;;;;;;;;;5008077;28;20069;-63
2023/04/26 04:35:53;;;;;;;1.40;1.00;;;;;;;;;;5010361;28;20129;-65
2023/04/26 04:38:19;;;;;;;1.50;1.00;;;;;;;;;;5005548;28;20079;-66
2023/04/26 04:40:46;;;;;;;1.50;0.73;;;;;;;;;;4988494;28;20044;-63
2023/04/26 04:43:13;;;;;;;1.77;0.88;;;;;;;;;;5004972;28;20132;-63
2023/04/26 04:45:38;;;;;;;1.20;0.90;;;;;;;;;;5005085;28;20137;-64
2023/04/26 04:48:04;;;;;;;1.60;1.00;;;;;;;;;;5021293;28;20140;-64
2023/04/26 04:50:30;;;;;;;2.08;1.10;;;;;;;;;;5004952;28;20348;-64
2023/04/26 04:52:56;;;;;;;3.33;0.95;;;;;;;;;;5010540;28;20184;-63
2023/04/26 04:55:21;;;;;;;1.83;1.20;;;;;;;;;;5022133;28;20542;-65
2023/04/26 04:57:46;;;;;;;1.70;1.07;;;;;;;;;;5012893;28;20280;-62
2023/04/26 05:00:13;;;;;;;1.60;1.10;;;;;;;;;;5025060;28;20292;-64
2023/04/26 05:02:38;;;;;;;1.77;1.00;;;;;;;;;;4997207;28;20076;-66
2023/04/26 05:05:03;;;;;;;1.57;0.90;;;;;;;;;;5024475;28;20057;-65
2023/04/26 05:07:30;;;;;;;1.85;1.02;;;;;;;;;;5001305;28;20313;-66
2023/04/26 05:09:55;;;;;;;1.77;1.20;;;;;;;;;;4990853;28;20030;-62
2023/04/26 05:12:21;;;;;;;1.90;1.07;;;;;;;;;;5011032;28;20474;-61
2023/04/26 05:14:46;;;;;;;1.50;1.00;;;;;;;;;;5025422;28;20290;-63
2023/04/26 05:17:11;;;;;;;1.27;0.90;;;;;;;;;;5023492;28;20029;-62
2023/04/26 05:19:36;;;;;;;1.30;0.90;;;;;;;;;;5004238;28;20125;-62
2023/04/26 05:22:02;;;;;;;1.42;0.88;;;;;;;;;;5023962;28;20080;-62
2023/04/26 05:24:29;;;;;;;2.03;0.95;;;;;;;;;;5006379;28;20025;-61
2023/04/26 05:26:55;;;;;;;1.45;1.00;;;;;;;;;;5003882;28;20124;-62
2023/04/26 05:29:20;;;;;;;1.70;0.93;;;;;;;;;;5007632;28;20690;-66
2023/04/26 05:31:45;;;;;;;2.05;1.15;;;;;;;;;;5012566;28;20020;-65
2023/04/26 05:34:11;;;;;;;1.53;0.90;;;;;;;;;;5022356;28;20022;-61
2023/04/26 05:36:36;;;;;;;1.40;0.90;;;;;;;;;;4984892;28;20303;-65
2023/04/26 05:39:01;;;;;;;1.90;1.00;;;;;;;;;;4994106;28;20042;-63
2023/04/26 05:41:27;;;;;;;1.43;1.00;;;;;;;;;;5005049;28;20055;-61
2023/04/26 05:43:52;;;;;;;1.60;1.00;;;;;;;;;;5005484;28;20283;-63
2023/04/26 05:46:17;;;;;;;1.57;1.07;;;;;;;;;;5018670;28;20284;-64
2023/04/26 05:48:43;;;;;;;1.75;1.17;;;;;;;;;;4994051;28;20338;-63
2023/04/26 05:51:08;;;;;;;2.30;1.10;;;;;;;;;;5014285;28;20634;-63
2023/04/26 05:53:33;;;;;;;1.48;1.02;;;;;;;;;;4983986;28;20055;-62
2023/04/26 05:55:58;;;;;;;1.90;1.00;;;;;;;;;;4980243;28;20053;-62
2023/04/26 05:58:24;;;;;;;1.43;1.10;;;;;;;;;;5010056;28;20260;-62
2023/04/26 06:00:49;;;;;;;1.38;1.10;;;;;;;;;;4989497;28;20018;-63
2023/04/26 06:03:14;;;;;;;1.83;1.10;;;;;;;;;;5018013;28;20453;-63
2023/04/26 06:05:40;;;;;;;1.40;1.00;;;;;;;;;;5020810;28;20859;-62
2023/04/26 06:08:05;;;;;;;1.52;1.00;;;;;;;;;;5016114;28;20037;-65
2023/04/26 06:10:30;;;;;;;1.20;0.93;;;;;;;;;;5008167;28;20048;-64
2023/04/26 06:12:55;;;;;;;1.65;1.00;;;;;;;;;;5021440;28;20346;-66
2023/04/26 06:15:21;;;;;;;1.40;0.93;;;;;;;;;;5017123;28;20508;-64
2023/04/26 06:17:46;;;;;;;1.67;1.17;;;;;;;;;;5005499;28;20050;-64
2023/04/26 06:20:11;;;;;;;1.85;1.10;;;;;;;;;;4988256;28;20276;-63
2023/04/26 06:22:37;;;;;;;1.93;1.00;;;;;;;;;;5003480;28;20013;-61
2023/04/26 06:25:03;;;;;;;2.35;1.17;;;;;;;;;;5016928;28;20284;-64
2023/04/26 06:27:28;;;;;;;2.30;1.20;;;;;;;;;;5016735;28;20055;-64
2023/04/26 06:29:54;;;;;;;2.27;1.30;;;;;;;;;;4992384;28;20105;-65
2023/04/26 06:32:19;;;;;;;2.07;1.20;;;;;;;;;;5011684;28;20057;-67
2023/04/26 06:34:44;;;;;;;2.13;1.30;;;;;;;;;;5021343;28;20771;-65
2023/04/26 06:37:10;;;;;;;2.15;1.20;;;;;;;;;;5020639;28;20402;-63
2023/04/26 06:39:37;;;;;;;1.83;1.10;;;;;;;;;;5022617;28;20068;-63
2023/04/26 06:42:02;;;;;;;1.63;1.13;;;;;;;;;;5008640;28;20021;-62
2023/04/26 06:44:27;;;;;;;1.80;1.10;;;;;;;;;;5012749;28;20391;-61
2023/04/26 06:46:53;;;;;;;2.00;1.20;;;;;;;;;;4997040;28;20540;-66
2023/04/26 06:49:18;;;;;;;2.10;1.30;;;;;;;;;;4994645;28;20055;-65
2023/04/26 06:51:44;;;;;;;1.93;1.33;;;;;;;;;;5010131;28;20422;-64
2023/04/26 06:54:11;;;;;;;1.83;1.20;;;;;;;;;;5013045;28;20315;-65
2023/04/26 06:56:36;;;;;;;1.60;1.27;;;;;;;;;;4991588;28;20037;-64
2023/04/26 06:59:02;;;;;;;1.97;1.10;;;;;;;;;;4997403;28;20057;-66
2023/04/26 07:01:28;;;;;;;1.77;1.30;;;;;;;;;;4998439;28;20283;-64
2023/04/26 07:03:56;;;;;;;1.83;1.13;;;;;;;;;;5011972;28;20045;-67
2023/04/26 07:06:21;;;;;;;1.75;1.20;;;;;;;;;;4994008;28;20049;-69
2023/04/26 07:08:47;;;;;;;2.20;1.60;;;;;;;;;;5010998;28;20053;-66
2023/04/26 07:11:12;;;;;;;2.43;1.70;;;;;;;;;;5017388;28;20049;-67
2023/04/26 07:13:37;;;;;;;1.90;1.17;;;;;;;;;;5021776;28;20308;-68
2023/04/26 07:16:03;;;;;;;2.17;1.23;;;;;;;;;;5017926;28;20124;-65
2023/04/26 07:18:28;;;;;;;1.73;1.27;;;;;;;;;;4997983;28;20040;-69
2023/04/26 07:20:53;;;;;;;1.87;1.30;;;;;;;;;;5009680;28;20053;-63
2023/04/26 07:23:18;;;;;;;1.60;1.10;;;;;;;;;;5003698;28;20037;-70
2023/04/26 07:25:44;;;;;;;1.77;1.40;;;;;;;;;;5009759;28;20041;-69
2023/04/26 07:28:10;;;;;;;1.90;1.33;;;;;;;;;;5011258;28;20056;-64
2023/04/26 07:30:35;;;;;;;1.98;1.40;;;;;;;;;;5011492;28;20502;-68
2023/04/26 07:33:00;;;;;;;1.60;1.25;;;;;;;;;;4997641;28;20038;-70
2023/04/26 07:35:26;;;;;;;1.40;1.27;;;;;;;;;;5010669;28;20041;-66
2023/04/26 07:37:51;;;;;;;2.37;1.67;;;;;;;;;;5011204;28;20086;-67
2023/04/26 07:40:17;;;;;;;2.50;1.53;;;;;;;;;;5012046;28;20287;-65
2023/04/26 07:42:42;;;;;;;1.90;1.50;;;;;;;;;;4993755;28;20473;-62
2023/04/26 07:45:08;;;;;;;2.55;1.70;;;;;;;;;;5009822;28;20044;-69
2023/04/26 07:47:33;;;;;;;2.20;1.55;;;;;;;;;;5010574;28;20037;-67
2023/04/26 07:49:58;;;;;;;2.00;1.50;;;;;;;;;;5010422;28;20032;-67
2023/04/26 07:52:24;;;;;;;2.78;1.60;;;;;;;;;;5012624;28;20084;-66
2023/04/26 07:54:49;;;;;;;2.27;1.60;;;;;;;;;;5023307;28;20040;-62
2023/04/26 07:57:15;;;;;;;1.97;1.50;;;;;;;;;;5017878;28;20776;-63
2023/04/26 07:59:40;;;;;;;2.50;1.60;;;;;;;;;;4992371;28;20272;-70
2023/04/26 08:02:06;;;;;;;3.23;1.60;;;;;;;;;;5021439;28;20026;-64
2023/04/26 08:04:32;;;;;;;2.88;1.63;;;;;;;;;;5006251;28;20033;-66
2023/04/26 08:06:58;;;;;;;3.03;1.83;;;;;;;;;;5008619;28;20038;-64
2023/04/26 08:09:23;;;;;;;3.05;1.70;;;;;;;;;;5010152;28;20537;-68
2023/04/26 08:11:48;;;;;;;2.17;1.60;;;;;;;;;;5010789;28;20069;-69
2023/04/26 08:14:13;;;;;;;2.30;1.67;;;;;;;;;;5006230;28;20034;-65
2023/04/26 08:16:40;;;;;;;2.20;1.33;;;;;;;;;;5006717;28;20602;-65
2023/04/26 08:19:05;;;;;;;2.63;1.70;;;;;;;;;;5020739;28;20272;-69
2023/04/26 08:21:31;;;;;;;2.38;1.40;;;;;;;;;;4984017;28;20103;-63
2023/04/26 08:23:56;;;;;;;2.35;1.55;;;;;;;;;;5019596;28;20038;-70
2023/04/26 08:26:22;;;;;;;2.05;1.40;;;;;;;;;;5007175;28;20068;-66
2023/04/26 08:28:47;;;;;;;2.85;1.70;;;;;;;;;;5008167;28;20058;-69
2023/04/26 08:31:12;;;;;;;2.27;1.87;;;;;;;;;;5017581;28;20042;-67
2023/04/26 08:33:37;;;;;;;3.10;1.70;;;;;;;;;;5010744;28;20775;-65
2023/04/26 08:36:03;;;;;;;2.40;1.52;;;;;;;;;;5016281;28;20421;-65
2023/04/26 08:38:29;;;;;;;3.25;1.70;;;;;;;;;;4995008;28;20476;-65
2023/04/26 08:40:55;;;;;;;2.63;1.60;;;;;;;;;;5006161;28;20058;-61
2023/04/26 08:43:20;;;;;;;2.70;1.60;;;;;;;;;;5009866;28;20129;-65
2023/04/26 08:45:46;;;;;;;3.23;1.90;;;;;;;;;;5006964;28;20510;-69
2023/04/26 08:48:14;;;;;;;2.50;1.60;;;;;;;;;;5016482;28;20510;-66
2023/04/26 08:50:39;;;;;;;3.42;1.80;;;;;;;;;;5001870;28;20029;-62
2023/04/26 08:53:04;;;;;;;3.10;2.23;;;;;;;;;;5011021;28;20084;-65
2023/04/26 08:55:30;;;;;;;2.57;1.67;;;;;;;;;;5009497;28;20285;-67
2023/04/26 08:57:55;;;;;;;2.95;1.45;;;;;;;;;;5006920;28;20038;-68
2023/04/26 09:00:21;;;;;;;4.07;1.77;;;;;;;;;;4992171;28;20033;-69
2023/04/26 09:02:47;;;;;;;2.40;1.70;;;;;;;;;;4988406;28;20064;-65
2023/04/26 09:05:12;;;;;;;1.80;1.50;;;;;;;;;;5010428;28;20050;-64
2023/04/26 09:07:41;;;;;;;2.78;1.52;;;;;;;;;;5024985;28;20094;-64
2023/04/26 09:10:08;;;;;;;2.88;1.40;;;;;;;;;;5030876;28;20046;-63
2023/04/26 09:12:33;;;;;;;1.77;1.38;;;;;;;;;;5001832;28;20043;-64
2023/04/26 09:14:59;;;;;;;2.63;1.70;;;;;;;;;;5029542;28;20097;-63
2023/04/26 09:17:31;;;;;;;3.70;1.98;;;;;;;;;;5017991;28;20049;-65
2023/04/26 09:19:57;;;;;;;3.53;1.85;;;;;;;;;;5013762;28;20048;-63
2023/04/26 09:22:30;;;;;;;2.70;1.90;;;;;;;;;;5013896;28;20125;-64
2023/04/26 09:24:55;;;;;;;3.58;2.25;;;;;;;;;;4998358;28;20797;-63
2023/04/26 09:27:20;;;;;;;4.35;2.50;;;;;;;;;;5020074;28;20127;-62
2023/04/26 09:29:59;;;;;;;3.33;2.00;;;;;;;;;;5001608;28;20034;-65
2023/04/26 09:32:25;;;;;;;4.00;2.20;;;;;;;;;;5003718;28;20527;-63
2023/04/26 09:34:51;;;;;;;2.50;2.15;;;;;;;;;;5005792;28;20121;-62
2023/04/26 09:37:16;;;;;;;4.43;1.90;;;;;;;;;;5023119;28;20154;-65
2023/04/26 09:39:41;;;;;;;2.43;1.73;;;;;;;;;;5024885;28;20292;-64
2023/04/26 09:42:07;;;;;;;3.70;2.10;;;;;;;;;;5013415;28;20307;-63
2023/04/26 09:44:32;;;;;;;3.40;2.47;;;;;;;;;;5022891;28;20069;-62
2023/04/26 09:46:58;;;;;;;3.00;1.80;;;;;;;;;;5016573;28;20116;-65
2023/04/26 09:49:47;;;;;;;3.03;1.77;;;;;;;;;;4990169;28;20465;-66
2023/04/26 09:52:12;;;;;;;3.40;1.77;;;;;;;;;;5016187;28;20044;-67
2023/04/26 09:54:38;;;;;;;2.83;2.10;;;;;;;;;;5002808;28;20421;-62
2023/04/26 09:57:03;;;;;;;2.42;1.83;;;;;;;;;;5006677;28;20033;-65
2023/04/26 09:59:42;;;;;;;2.30;1.70;;;;;;;;;;5025043;28;20160;-62
2023/04/26 10:02:15;;;;;;;2.63;1.75;;;;;;;;;;5011553;28;20538;-61
2023/04/26 10:04:40;;;;;;;2.95;1.55;;;;;;;;;;5024486;28;20046;-64
2023/04/26 10:07:06;;;;;;;2.75;1.42;;;;;;;;;;4990048;28;20533;-63
2023/04/26 10:09:31;;;;;;;3.10;1.42;;;;;;;;;;5024292;28;20048;-64
2023/04/26 10:11:57;;;;;;;2.30;1.50;;;;;;;;;;5015329;28;20049;-61
2023/04/26 10:14:22;;;;;;;3.30;1.33;;;;;;;;;;5003613;28;20292;-65
2023/04/26 10:16:47;;;;;;;2.23;1.63;;;;;;;;;;5010346;28;20030;-65
2023/04/26 10:19:12;;;;;;;2.40;1.60;;;;;;;;;;4987160;28;21170;-63
2023/04/26 10:21:38;;;;;;;3.43;1.53;;;;;;;;;;5006057;28;20423;-63
2023/04/26 10:24:03;;;;;;;2.37;1.50;;;;;;;;;;5011070;28;20314;-65
2023/04/26 10:26:56;;;;;;;1.83;1.30;;;;;;;;;;5023755;28;20038;-64
2023/04/26 10:29:24;;;;;;;3.85;1.40;;;;;;;;;;4995232;28;20064;-63
2023/04/26 10:32:05;;;;;;;2.65;1.50;;;;;;;;;;4995693;28;20561;-62
2023/04/26 10:34:31;;;;;;;1.83;1.27;;;;;;;;;;5005703;28;20041;-62
2023/04/26 10:37:06;;;;;;;2.08;1.42;;;;;;;;;;4986404;28;20045;-63
2023/04/26 10:39:31;;;;;;;2.28;1.52;;;;;;;;;;5003380;28;20059;-64
2023/04/26 10:42:21;;;;;;;2.50;1.50;;;;;;;;;;5019692;28;20092;-65
2023/04/26 10:44:47;;;;;;;2.58;1.50;;;;;;;;;;5010675;28;20090;-64
2023/04/26 10:47:21;;;;;;;2.97;1.67;;;;;;;;;;5022569;28;20160;-65
2023/04/26 10:49:47;;;;;;;2.25;1.50;;;;;;;;;;5018398;28;20640;-62
2023/04/26 10:52:18;;;;;;;1.70;1.30;;;;;;;;;;5024613;28;20041;-62
2023/04/26 10:54:53;;;;;;;2.80;1.20;;;;;;;;;;4998761;28;20049;-68
2023/04/26 10:57:19;;;;;;;2.20;1.40;;;;;;;;;;5006351;28;20066;-64
2023/04/26 11:00:04;;;;;;;2.42;1.15;;;;;;;;;;5016182;28;20030;-66
2023/04/26 11:02:45;;;;;;;2.15;1.33;;;;;;;;;;5019078;28;20037;-61
2023/04/26 11:05:20;;;;;;;3.90;1.50;;;;;;;;;;5010514;28;20056;-66
2023/04/26 11:07:46;;;;;;;2.10;1.27;;;;;;;;;;5002507;28;20111;-63
2023/04/26 11:10:13;;;;;;;2.58;1.83;;;;;;;;;;5005718;28;20053;-64
2023/04/26 11:12:40;;;;;;;2.65;1.30;;;;;;;;;;4989826;28;20061;-64
2023/04/26 11:15:06;;;;;;;1.73;1.30;;;;;;;;;;5014427;28;20104;-67
2023/04/26 11:17:35;;;;;;;3.15;1.48;;;;;;;;;;5022766;28;20328;-63
2023/04/26 11:20:05;;;;;;;2.08;1.20;;;;;;;;;;5023413;28;20045;-63
2023/04/26 11:22:30;;;;;;;2.28;1.35;;;;;;;;;;5012888;28;20038;-66
2023/04/26 11:24:55;;;;;;;1.80;1.37;;;;;;;;;;5017878;28;20128;-65
2023/04/26 11:27:21;;;;;;;2.03;1.60;;;;;;;;;;5014264;28;20284;-62
2023/04/26 11:29:46;;;;;;;2.07;1.20;;;;;;;;;;5014619;28;20041;-63
2023/04/26 11:32:13;;;;;;;1.90;1.33;;;;;;;;;;5011693;28;20301;-62
2023/04/26 11:34:38;;;;;;;2.20;1.50;;;;;;;;;;5019703;28;20470;-63
2023/04/26 11:37:04;;;;;;;2.10;1.37;;;;;;;;;;5009874;28;20064;-69
2023/04/26 11:39:32;;;;;;;1.85;1.33;;;;;;;;;;5002681;28;20273;-70
2023/04/26 11:42:05;;;;;;;2.10;1.50;;;;;;;;;;5009598;28;20389;-64
2023/04/26 11:44:30;;;;;;;1.67;1.30;;;;;;;;;;4983891;28;20080;-69
2023/04/26 11:46:55;;;;;;;2.30;1.30;;;;;;;;;;5012154;28;20038;-62
2023/04/26 11:49:21;;;;;;;2.45;1.50;;;;;;;;;;5007682;28;20151;-66
2023/04/26 11:51:46;;;;;;;1.53;1.20;;;;;;;;;;5005497;28;20405;-67
2023/04/26 11:54:23;;;;;;;2.13;1.38;;;;;;;;;;5002723;28;20414;-65
2023/04/26 11:56:49;;;;;;;1.80;1.20;;;;;;;;;;4988991;28;20033;-67
2023/04/26 11:59:14;;;;;;;2.40;1.60;;;;;;;;;;4986500;28;20090;-66
2023/04/26 12:01:39;;;;;;;2.07;1.40;;;;;;;;;;5004417;28;20286;-66
2023/04/26 12:04:08;;;;;;;1.87;1.30;;;;;;;;;;4999828;28;20796;-68
2023/04/26 12:06:40;;;;;;;1.60;1.10;;;;;;;;;;4985658;28;20125;-67
2023/04/26 12:09:07;;;;;;;1.98;1.52;;;;;;;;;;4988013;28;20158;-68
2023/04/26 12:11:32;;;;;;;1.50;1.02;;;;;;;;;;4997034;28;20048;-69
2023/04/26 12:13:58;;;;;;;1.90;1.30;;;;;;;;;;5022032;28;20041;-66
2023/04/26 12:16:23;;;;;;;2.25;1.35;;;;;;;;;;5022265;28;20061;-68
2023/04/26 12:18:49;;;;;;;2.40;1.38;;;;;;;;;;5014760;28;21273;-66
2023/04/26 12:21:15;;;;;;;3.00;1.88;;;;;;;;;;5022336;28;20044;-63
2023/04/26 12:23:41;;;;;;;2.25;1.58;;;;;;;;;;5009429;28;20038;-65
2023/04/26 12:26:09;;;;;;;1.85;1.35;;;;;;;;;;5002209;28;20736;-65
2023/04/26 12:28:34;;;;;;;1.95;1.38;;;;;;;;;;5013785;28;20067;-67
2023/04/26 12:31:00;;;;;;;2.70;1.47;;;;;;;;;;5022280;28;20046;-63
2023/04/26 12:33:25;;;;;;;1.83;1.30;;;;;;;;;;5005618;28;20155;-67
2023/04/26 12:35:51;;;;;;;1.88;1.50;;;;;;;;;;5021912;28;20500;-69
2023/04/26 12:38:17;;;;;;;1.55;1.30;;;;;;;;;;5020810;28;20287;-63
2023/04/26 12:40:42;;;;;;;2.13;1.40;;;;;;;;;;4978533;28;20030;-63
2023/04/26 12:43:07;;;;;;;1.80;1.40;;;;;;;;;;5024271;28;20120;-63
2023/04/26 12:45:32;;;;;;;2.00;1.47;;;;;;;;;;5006009;28;20050;-64
2023/04/26 12:47:58;;;;;;;1.90;1.43;;;;;;;;;;5005696;28;20311;-63
2023/04/26 12:50:23;;;;;;;2.03;1.30;;;;;;;;;;4996519;28;20289;-64
2023/04/26 12:52:48;;;;;;;2.53;1.38;;;;;;;;;;5011528;28;20042;-64
2023/04/26 12:55:14;;;;;;;1.92;1.27;;;;;;;;;;5012674;28;20773;-65
2023/04/26 12:57:41;;;;;;;2.10;1.40;;;;;;;;;;5011834;28;20096;-64
2023/04/26 13:00:10;;;;;;;1.92;1.40;;;;;;;;;;4995296;28;20133;-64
2023/04/26 13:02:35;;;;;;;3.03;1.55;;;;;;;;;;4993574;28;20033;-65
2023/04/26 13:05:03;;;;;;;2.07;1.50;;;;;;;;;;4991008;28;20421;-66
2023/04/26 13:07:28;;;;;;;1.98;1.27;;;;;;;;;;5022685;28;20673;-66
2023/04/26 13:09:54;;;;;;;2.15;1.40;;;;;;;;;;5014841;28;20041;-63
2023/04/26 13:12:19;;;;;;;2.85;1.45;;;;;;;;;;5010348;28;21370;-63
2023/04/26 13:14:45;;;;;;;2.22;1.20;;;;;;;;;;5006506;28;20037;-64
2023/04/26 13:17:10;;;;;;;2.35;1.73;;;;;;;;;;5006086;28;20526;-62
2023/04/26 13:19:36;;;;;;;1.52;1.10;;;;;;;;;;5020426;28;20037;-63
2023/04/26 13:22:01;;;;;;;1.73;1.23;;;;;;;;;;5010719;28;20064;-64
2023/04/26 13:24:26;;;;;;;2.08;1.38;;;;;;;;;;5014899;28;20072;-65
2023/04/26 13:26:52;;;;;;;2.23;1.20;;;;;;;;;;4993510;28;20122;-67
2023/04/26 13:29:17;;;;;;;1.98;1.40;;;;;;;;;;5024745;28;20316;-67
2023/04/26 13:31:42;;;;;;;2.03;1.23;;;;;;;;;;5017484;28;20108;-65
2023/04/26 13:34:08;;;;;;;1.65;1.30;;;;;;;;;;5010077;28;20284;-69
2023/04/26 13:36:33;;;;;;;2.47;1.65;;;;;;;;;;5006311;28;20478;-69
2023/04/26 13:38:59;;;;;;;1.97;1.30;;;;;;;;;;5020498;28;20192;-67
2023/04/26 13:41:24;;;;;;;2.53;1.33;;;;;;;;;;5022618;28;20831;-66
2023/04/26 13:43:50;;;;;;;3.90;1.47;;;;;;;;;;5006383;28;20037;-64
2023/04/26 13:46:15;;;;;;;2.78;1.40;;;;;;;;;;5019145;28;20124;-63
2023/04/26 13:48:40;;;;;;;1.77;1.30;;;;;;;;;;5005866;28;20037;-63
2023/04/26 13:51:06;;;;;;;1.58;1.17;;;;;;;;;;5008662;28;20303;-65
2023/04/26 13:53:31;;;;;;;2.00;1.20;;;;;;;;;;5016229;28;20147;-65
2023/04/26 13:55:56;;;;;;;2.40;1.60;;;;;;;;;;5004725;28;20034;-65
2023/04/26 13:58:21;;;;;;;1.37;1.10;;;;;;;;;;5020470;28;20035;-66
2023/04/26 14:00:47;;;;;;;2.07;1.50;;;;;;;;;;5024036;28;20304;-62
2023/04/26 14:03:12;;;;;;;1.83;1.40;;;;;;;;;;4986910;28;20934;-65
2023/04/26 14:05:38;;;;;;;1.60;1.20;;;;;;;;;;4990101;28;20042;-64
2023/04/26 14:08:03;;;;;;;2.50;1.30;;;;;;;;;;5015205;28;20156;-62
2023/04/26 14:10:28;;;;;;;1.83;1.35;;;;;;;;;;5015439;28;20125;-64
2023/04/26 14:12:55;;;;;;;2.40;1.42;;;;;;;;;;5022851;28;20533;-62
2023/04/26 14:15:20;;;;;;;1.42;1.15;;;;;;;;;;4986536;28;20525;-64
2023/04/26 14:17:45;;;;;;;1.65;1.30;;;;;;;;;;5016174;28;20116;-62
2023/04/26 14:20:11;;;;;;;2.20;1.30;;;;;;;;;;5018883;28;20548;-68
2023/04/26 14:22:36;;;;;;;1.88;1.30;;;;;;;;;;5015133;28;20064;-66
2023/04/26 14:25:02;;;;;;;2.10;1.30;;;;;;;;;;5013385;28;20030;-70
2023/04/26 14:27:27;;;;;;;2.13;1.38;;;;;;;;;;5010380;28;20339;-62
2023/04/26 14:29:52;;;;;;;2.00;1.40;;;;;;;;;;4987019;28;20058;-65
2023/04/26 14:32:18;;;;;;;1.90;1.20;;;;;;;;;;5004144;28;20034;-65
2023/04/26 14:34:43;;;;;;;2.27;1.30;;;;;;;;;;5013627;28;20280;-64
2023/04/26 14:37:09;;;;;;;2.03;1.27;;;;;;;;;;5008739;28;20297;-65